createdAt,value
2017-12-31T00:02:18.331Z,7.68
2017-12-31T00:04:44.445Z,7.28
2017-12-31T00:07:10.600Z,7.43
2017-12-31T00:09:36.749Z,7.47
2017-12-31T00:12:09.010Z,6.93
2017-12-31T00:14:37.106Z,7.05
2017-12-31T00:17:03.250Z,8.30
2017-12-31T00:19:29.372Z,6.50
2017-12-31T00:21:55.524Z,7.55
2017-12-31T00:24:22.505Z,6.90
2017-12-31T00:26:48.579Z,7.05
2017-12-31T00:29:15.439Z,6.85
2017-12-31T00:31:41.565Z,6.80
2017-12-31T00:34:14.270Z,5.55
2017-12-31T00:36:40.351Z,8.65
2017-12-31T00:39:06.443Z,7.22
2017-12-31T00:41:32.520Z,6.95
2017-12-31T00:43:58.629Z,7.03
2017-12-31T00:46:24.706Z,5.68
2017-12-31T00:48:50.798Z,6.65
2017-12-31T00:53:48.816Z,6.12
2017-12-31T00:56:14.954Z,7.50
2017-12-31T00:58:41.067Z,6.15
2017-12-31T01:01:07.163Z,6.68
2017-12-31T01:03:33.300Z,6.82
2017-12-31T01:05:59.380Z,6.78
2017-12-31T01:08:25.445Z,5.82
2017-12-31T01:10:54.460Z,7.00
2017-12-31T01:13:20.668Z,6.15
2017-12-31T01:15:46.744Z,6.57
2017-12-31T01:18:12.983Z,6.93
2017-12-31T01:20:39.121Z,7.05
2017-12-31T01:23:05.944Z,6.90
2017-12-31T01:25:32.030Z,5.78
2017-12-31T01:28:01.804Z,5.85
2017-12-31T01:30:27.888Z,5.25
2017-12-31T01:32:54.047Z,6.78
2017-12-31T01:35:20.658Z,5.43
2017-12-31T01:37:46.905Z,6.87
2017-12-31T01:40:13.046Z,7.30
2017-12-31T01:42:39.629Z,6.40
2017-12-31T01:45:09.220Z,7.05
2017-12-31T01:47:35.315Z,6.10
2017-12-31T01:50:01.418Z,7.30
2017-12-31T01:52:28.671Z,6.70
2017-12-31T01:54:54.866Z,5.00
2017-12-31T01:57:21.084Z,6.12
2017-12-31T01:59:47.188Z,5.75
2017-12-31T02:02:18.510Z,6.22
2017-12-31T02:04:44.867Z,6.82
2017-12-31T02:07:11.837Z,7.00
2017-12-31T02:09:37.972Z,6.80
2017-12-31T02:12:04.844Z,6.35
2017-12-31T02:14:31.288Z,6.22
2017-12-31T02:16:58.189Z,7.22
2017-12-31T02:19:24.311Z,6.25
2017-12-31T02:21:53.900Z,5.53
2017-12-31T02:24:19.999Z,6.65
2017-12-31T02:26:46.115Z,5.90
2017-12-31T02:29:12.234Z,5.97
2017-12-31T02:31:38.337Z,5.30
2017-12-31T02:34:05.165Z,4.85
2017-12-31T02:36:31.397Z,4.72
2017-12-31T02:41:29.811Z,5.18
2017-12-31T02:43:55.863Z,5.45
2017-12-31T02:46:21.956Z,5.68
2017-12-31T02:48:48.055Z,4.93
2017-12-31T02:51:14.868Z,3.33
2017-12-31T02:53:40.988Z,4.40
2017-12-31T02:56:07.166Z,5.05
2017-12-31T02:58:37.282Z,4.32
2017-12-31T03:01:03.359Z,4.12
2017-12-31T03:03:29.525Z,3.40
2017-12-31T03:05:55.879Z,4.05
2017-12-31T03:08:22.691Z,4.22
2017-12-31T03:10:48.751Z,3.53
2017-12-31T03:13:14.904Z,4.40
2017-12-31T03:15:41.053Z,4.40
2017-12-31T03:20:39.034Z,4.40
2017-12-31T03:23:05.180Z,4.57
2017-12-31T03:25:31.247Z,4.30
2017-12-31T03:27:57.691Z,4.20
2017-12-31T03:30:24.641Z,4.82
2017-12-31T03:32:50.821Z,4.20
2017-12-31T03:35:17.675Z,3.90
2017-12-31T03:37:49.773Z,4.47
2017-12-31T03:40:15.875Z,3.50
2017-12-31T03:42:42.016Z,3.58
2017-12-31T03:45:08.151Z,3.30
2017-12-31T03:47:34.284Z,4.10
2017-12-31T03:50:00.383Z,3.03
2017-12-31T03:52:26.496Z,2.78
2017-12-31T03:54:57.021Z,3.40
2017-12-31T03:57:23.111Z,3.30
2017-12-31T03:59:50.005Z,3.25
2017-12-31T04:02:16.136Z,2.92
2017-12-31T04:04:42.972Z,3.37
2017-12-31T04:07:09.088Z,2.70
2017-12-31T04:09:35.967Z,2.12
2017-12-31T04:12:08.120Z,2.65
2017-12-31T04:14:34.283Z,2.67
2017-12-31T04:17:00.354Z,2.80
2017-12-31T04:19:26.455Z,2.40
2017-12-31T04:21:53.292Z,1.70
2017-12-31T04:24:19.386Z,2.47
2017-12-31T04:26:46.275Z,1.73
2017-12-31T04:29:12.479Z,1.62
2017-12-31T04:31:41.983Z,1.45
2017-12-31T04:34:08.226Z,1.45
2017-12-31T04:36:34.359Z,1.35
2017-12-31T04:39:00.467Z,1.00
2017-12-31T04:41:27.320Z,0.80
2017-12-31T04:43:54.188Z,1.60
2017-12-31T04:46:20.289Z,1.15
2017-12-31T04:48:47.141Z,1.30
2017-12-31T04:51:16.939Z,1.50
2017-12-31T04:53:43.061Z,1.20
2017-12-31T04:56:09.212Z,1.60
2017-12-31T04:58:36.068Z,1.45
2017-12-31T05:01:02.182Z,1.65
2017-12-31T05:03:28.333Z,2.20
2017-12-31T05:05:55.188Z,2.30
2017-12-31T05:08:27.456Z,2.40
2017-12-31T05:10:53.544Z,2.90
2017-12-31T05:13:19.665Z,2.92
2017-12-31T05:15:45.771Z,3.33
2017-12-31T05:18:11.855Z,3.42
2017-12-31T05:20:38.699Z,3.25
2017-12-31T05:23:04.791Z,3.10
2017-12-31T05:25:35.635Z,3.15
2017-12-31T05:28:01.735Z,4.00
2017-12-31T05:30:28.567Z,4.12
2017-12-31T05:32:54.675Z,4.20
2017-12-31T05:35:21.535Z,3.70
2017-12-31T05:37:47.672Z,4.20
2017-12-31T05:40:13.891Z,3.60
2017-12-31T05:42:40.779Z,3.75
2017-12-31T05:45:10.666Z,4.25
2017-12-31T05:47:36.788Z,4.40
2017-12-31T05:50:02.900Z,4.70
2017-12-31T05:52:29.008Z,3.42
2017-12-31T05:54:55.944Z,3.20
2017-12-31T05:57:22.049Z,3.85
2017-12-31T05:59:48.247Z,4.47
2017-12-31T06:02:14.367Z,3.30
2017-12-31T06:04:45.607Z,3.97
2017-12-31T06:07:11.723Z,3.90
2017-12-31T06:09:37.877Z,4.62
2017-12-31T06:12:03.980Z,3.80
2017-12-31T06:14:30.079Z,4.07
2017-12-31T06:16:56.510Z,4.07
2017-12-31T06:19:22.623Z,3.95
2017-12-31T06:21:48.727Z,4.15
2017-12-31T06:24:20.136Z,4.00
2017-12-31T06:26:46.247Z,3.90
2017-12-31T06:29:12.381Z,3.95
2017-12-31T06:31:38.475Z,4.10
2017-12-31T06:34:04.557Z,4.00
2017-12-31T06:36:30.637Z,3.80
2017-12-31T06:38:56.699Z,4.10
2017-12-31T06:41:22.775Z,3.47
2017-12-31T06:43:52.442Z,4.28
2017-12-31T06:46:18.520Z,4.37
2017-12-31T06:48:44.615Z,3.20
2017-12-31T06:51:11.432Z,3.47
2017-12-31T06:53:37.512Z,2.95
2017-12-31T06:56:03.662Z,3.80
2017-12-31T06:58:29.732Z,3.00
2017-12-31T07:00:55.791Z,3.30
2017-12-31T07:03:28.661Z,3.60
2017-12-31T07:05:54.840Z,3.62
2017-12-31T07:08:20.951Z,3.70
2017-12-31T07:10:47.021Z,3.60
2017-12-31T07:13:13.146Z,3.35
2017-12-31T07:15:39.975Z,3.50
2017-12-31T07:18:06.057Z,3.87
2017-12-31T07:20:38.119Z,3.12
2017-12-31T07:23:04.208Z,3.03
2017-12-31T07:25:30.271Z,3.15
2017-12-31T07:27:56.752Z,2.80
2017-12-31T07:30:23.104Z,2.75
2017-12-31T07:32:49.253Z,3.50
2017-12-31T07:35:15.346Z,2.80
2017-12-31T07:37:41.473Z,2.45
2017-12-31T07:40:11.013Z,2.72
2017-12-31T07:42:37.108Z,2.75
2017-12-31T07:45:03.225Z,3.15
2017-12-31T07:47:29.376Z,2.50
2017-12-31T07:49:55.760Z,2.47
2017-12-31T07:52:21.863Z,3.00
2017-12-31T07:54:48.263Z,2.20
2017-12-31T07:57:14.400Z,2.80
2017-12-31T08:02:15.327Z,1.80
2017-12-31T08:04:41.456Z,2.00
2017-12-31T08:07:08.287Z,1.90
2017-12-31T08:09:34.470Z,2.20
2017-12-31T08:12:00.592Z,2.28
2017-12-31T08:14:30.532Z,2.35
2017-12-31T08:16:58.960Z,2.40
2017-12-31T08:19:25.889Z,1.90
2017-12-31T08:21:51.979Z,2.30
2017-12-31T08:24:18.873Z,2.20
2017-12-31T08:26:44.973Z,3.03
2017-12-31T08:29:11.128Z,2.10
2017-12-31T08:31:42.423Z,2.50
2017-12-31T08:34:08.536Z,3.33
2017-12-31T08:36:34.847Z,2.42
2017-12-31T08:39:01.149Z,2.40
2017-12-31T08:41:27.356Z,2.00
2017-12-31T08:43:54.200Z,1.83
2017-12-31T08:46:20.386Z,2.25
2017-12-31T08:48:47.026Z,2.30
2017-12-31T08:51:17.747Z,1.98
2017-12-31T08:53:44.264Z,1.92
2017-12-31T08:56:11.200Z,1.95
2017-12-31T08:58:37.422Z,2.28
2017-12-31T09:01:03.549Z,3.10
2017-12-31T09:03:29.673Z,2.10
2017-12-31T09:05:55.869Z,2.60
2017-12-31T09:08:22.029Z,2.85
2017-12-31T09:10:53.980Z,2.20
2017-12-31T09:13:20.084Z,1.85
2017-12-31T09:15:46.482Z,1.60
2017-12-31T09:18:12.600Z,2.25
2017-12-31T09:20:38.728Z,1.75
2017-12-31T09:23:04.885Z,2.00
2017-12-31T09:25:32.473Z,2.10
2017-12-31T09:27:59.356Z,2.08
2017-12-31T09:30:29.852Z,1.70
2017-12-31T09:32:56.055Z,1.65
2017-12-31T09:35:22.542Z,2.45
2017-12-31T09:37:49.400Z,2.40
2017-12-31T09:40:15.515Z,2.70
2017-12-31T09:42:41.632Z,2.53
2017-12-31T09:45:07.776Z,3.97
2017-12-31T09:47:33.998Z,1.65
2017-12-31T09:50:00.247Z,2.20
2017-12-31T09:52:26.354Z,2.17
2017-12-31T09:54:52.507Z,1.95
2017-12-31T09:57:19.400Z,1.75
2017-12-31T09:59:45.525Z,2.83
2017-12-31T10:02:11.632Z,1.90
2017-12-31T10:04:38.504Z,2.13
2017-12-31T10:07:08.922Z,2.20
2017-12-31T10:09:35.116Z,1.90
2017-12-31T10:12:01.996Z,1.90
2017-12-31T10:14:28.092Z,1.70
2017-12-31T10:16:54.220Z,1.80
2017-12-31T10:19:20.355Z,1.87
2017-12-31T10:21:46.543Z,2.10
2017-12-31T10:24:12.852Z,2.00
2017-12-31T10:26:43.268Z,1.90
2017-12-31T10:29:10.812Z,2.03
2017-12-31T10:31:37.076Z,2.20
2017-12-31T10:34:03.151Z,2.05
2017-12-31T10:36:29.212Z,1.67
2017-12-31T10:38:56.063Z,2.17
2017-12-31T10:41:22.135Z,2.30
2017-12-31T10:43:48.214Z,1.75
2017-12-31T10:46:18.407Z,2.45
2017-12-31T10:48:44.540Z,1.90
2017-12-31T10:51:11.364Z,2.13
2017-12-31T10:53:37.751Z,1.70
2017-12-31T10:56:03.900Z,1.85
2017-12-31T10:58:29.991Z,2.07
2017-12-31T11:01:00.935Z,3.47
2017-12-31T11:03:33.177Z,1.83
2017-12-31T11:05:59.796Z,2.90
2017-12-31T11:08:25.940Z,2.70
2017-12-31T11:10:52.041Z,3.40
2017-12-31T11:13:18.117Z,2.10
2017-12-31T11:15:44.987Z,2.00
2017-12-31T11:18:12.281Z,1.67
2017-12-31T11:20:39.094Z,1.60
2017-12-31T11:23:05.188Z,2.17
2017-12-31T11:25:31.994Z,1.90
2017-12-31T11:27:58.448Z,2.10
2017-12-31T11:30:25.279Z,2.00
2017-12-31T11:32:51.398Z,1.67
2017-12-31T11:35:17.526Z,2.07
2017-12-31T11:37:43.834Z,2.00
2017-12-31T11:40:10.810Z,1.60
2017-12-31T11:42:40.177Z,1.37
2017-12-31T11:45:06.336Z,2.13
2017-12-31T11:47:32.572Z,1.70
2017-12-31T11:49:58.655Z,1.70
2017-12-31T11:52:25.241Z,2.28
2017-12-31T11:54:51.405Z,1.40
2017-12-31T11:57:17.552Z,1.70
2017-12-31T11:59:44.475Z,2.20
2017-12-31T12:02:13.748Z,1.90
2017-12-31T12:04:39.868Z,1.70
2017-12-31T12:07:06.390Z,1.70
2017-12-31T12:09:33.252Z,1.27
2017-12-31T12:11:59.331Z,1.33
2017-12-31T12:14:25.446Z,2.23
2017-12-31T12:16:51.511Z,2.17
2017-12-31T12:19:17.580Z,1.70
2017-12-31T12:21:51.780Z,1.50
2017-12-31T12:24:17.859Z,1.10
2017-12-31T12:26:44.124Z,1.30
2017-12-31T12:29:10.961Z,1.73
2017-12-31T12:31:37.164Z,1.53
2017-12-31T12:34:04.031Z,1.60
2017-12-31T12:36:30.883Z,1.40
2017-12-31T12:39:00.178Z,1.80
2017-12-31T12:41:27.036Z,1.98
2017-12-31T12:43:53.103Z,1.80
2017-12-31T12:46:19.939Z,2.05
2017-12-31T12:48:46.008Z,2.27
2017-12-31T12:51:12.331Z,1.60
2017-12-31T12:53:38.616Z,1.87
2017-12-31T12:56:05.444Z,2.50
2017-12-31T12:58:34.704Z,1.70
2017-12-31T13:01:01.503Z,1.50
2017-12-31T13:03:27.589Z,1.80
2017-12-31T13:05:53.655Z,1.00
2017-12-31T13:08:19.715Z,1.83
2017-12-31T13:10:45.803Z,1.48
2017-12-31T13:13:11.979Z,1.70
2017-12-31T13:15:38.845Z,2.03
2017-12-31T13:18:08.037Z,1.60
2017-12-31T13:20:34.216Z,1.60
2017-12-31T13:23:00.285Z,1.53
2017-12-31T13:25:26.389Z,1.90
2017-12-31T13:27:52.476Z,2.20
2017-12-31T13:30:18.555Z,1.80
2017-12-31T13:32:44.680Z,1.45
2017-12-31T13:35:11.960Z,2.53
2017-12-31T13:37:40.469Z,1.60
2017-12-31T13:40:06.588Z,1.50
2017-12-31T13:42:32.889Z,1.37
2017-12-31T13:44:59.437Z,1.20
2017-12-31T13:47:25.545Z,2.60
2017-12-31T13:49:51.644Z,2.10
2017-12-31T13:52:17.761Z,1.60
2017-12-31T13:54:44.602Z,2.00
2017-12-31T13:57:16.903Z,1.57
2017-12-31T13:59:43.088Z,1.50
2017-12-31T14:02:09.199Z,1.17
2017-12-31T14:04:35.312Z,1.30
2017-12-31T14:07:01.476Z,1.10
2017-12-31T14:09:27.601Z,1.30
2017-12-31T14:11:53.733Z,1.30
2017-12-31T14:14:19.859Z,1.40
2017-12-31T14:16:53.016Z,1.70
2017-12-31T14:19:19.216Z,1.27
2017-12-31T14:21:45.347Z,1.57
2017-12-31T14:24:11.464Z,1.90
2017-12-31T14:26:37.592Z,1.60
2017-12-31T14:29:04.460Z,1.83
2017-12-31T14:31:30.600Z,2.00
2017-12-31T14:33:57.464Z,2.13
2017-12-31T14:36:27.414Z,1.25
2017-12-31T14:38:54.302Z,1.53
2017-12-31T14:41:20.432Z,2.00
2017-12-31T14:43:46.624Z,1.60
2017-12-31T14:46:12.729Z,1.60
2017-12-31T14:48:38.849Z,1.90
2017-12-31T14:51:05.007Z,2.50
2017-12-31T14:53:31.240Z,2.07
2017-12-31T14:56:01.893Z,2.10
2017-12-31T14:58:28.031Z,1.90
2017-12-31T15:00:54.924Z,3.12
2017-12-31T15:03:20.996Z,1.67
2017-12-31T15:05:47.139Z,1.50
2017-12-31T15:08:13.469Z,1.80
2017-12-31T15:10:39.603Z,2.83
2017-12-31T15:13:05.720Z,1.73
2017-12-31T15:15:38.522Z,2.10
2017-12-31T15:18:04.736Z,1.85
2017-12-31T15:20:31.574Z,1.77
2017-12-31T15:22:57.676Z,2.90
2017-12-31T15:25:23.799Z,2.00
2017-12-31T15:27:50.676Z,1.73
2017-12-31T15:30:21.929Z,1.43
2017-12-31T15:32:48.063Z,1.50
2017-12-31T15:35:14.192Z,2.37
2017-12-31T15:37:40.316Z,2.20
2017-12-31T15:40:06.471Z,1.93
2017-12-31T15:42:33.311Z,2.00
2017-12-31T15:45:00.198Z,2.40
2017-12-31T15:47:26.357Z,2.20
2017-12-31T15:49:55.625Z,2.00
2017-12-31T15:52:21.803Z,1.70
2017-12-31T15:54:47.943Z,2.10
2017-12-31T15:57:14.147Z,2.20
2017-12-31T15:59:41.073Z,2.40
2017-12-31T16:02:07.271Z,2.05
2017-12-31T16:04:33.440Z,1.70
2017-12-31T16:06:59.556Z,2.10
2017-12-31T16:09:27.495Z,1.70
2017-12-31T16:11:53.628Z,1.75
2017-12-31T16:14:19.736Z,2.00
2017-12-31T16:16:45.895Z,1.80
2017-12-31T16:19:12.005Z,1.85
2017-12-31T16:21:38.128Z,1.55
2017-12-31T16:24:04.267Z,2.22
2017-12-31T16:26:33.865Z,2.00
2017-12-31T16:28:59.979Z,2.10
2017-12-31T16:31:26.093Z,2.10
2017-12-31T16:33:52.901Z,2.10
2017-12-31T16:36:18.983Z,2.35
2017-12-31T16:38:45.060Z,3.20
2017-12-31T16:41:11.174Z,4.20
2017-12-31T16:43:40.199Z,3.53
2017-12-31T16:46:06.355Z,2.53
2017-12-31T16:48:32.432Z,2.60
2017-12-31T16:50:58.640Z,4.00
2017-12-31T16:53:24.732Z,3.20
2017-12-31T16:55:50.852Z,2.85
2017-12-31T16:58:16.974Z,4.20
2017-12-31T17:03:15.702Z,2.30
2017-12-31T17:05:41.794Z,3.05
2017-12-31T17:08:07.904Z,2.60
2017-12-31T17:10:34.046Z,2.70
2017-12-31T17:13:00.312Z,2.60
2017-12-31T17:15:26.408Z,2.58
2017-12-31T17:17:52.505Z,2.53
2017-12-31T17:20:20.960Z,2.28
2017-12-31T17:22:47.791Z,2.60
2017-12-31T17:25:13.891Z,2.80
2017-12-31T17:27:40.738Z,2.50
2017-12-31T17:30:06.862Z,3.67
2017-12-31T17:32:32.932Z,2.92
2017-12-31T17:34:59.045Z,2.62
2017-12-31T17:37:31.940Z,2.65
2017-12-31T17:39:58.057Z,3.22
2017-12-31T17:42:24.188Z,2.20
2017-12-31T17:44:51.167Z,2.90
2017-12-31T17:47:17.655Z,2.53
2017-12-31T17:49:44.507Z,2.35
2017-12-31T17:52:10.661Z,3.25
2017-12-31T17:54:39.897Z,3.80
2017-12-31T17:57:06.027Z,3.20
2017-12-31T17:59:32.147Z,3.50
2017-12-31T18:01:59.013Z,4.40
2017-12-31T18:04:25.155Z,4.75
2017-12-31T18:06:51.264Z,3.40
2017-12-31T18:09:17.462Z,3.95
2017-12-31T18:11:43.715Z,4.45
2017-12-31T18:14:15.788Z,3.70
2017-12-31T18:16:42.636Z,5.07
2017-12-31T18:19:08.783Z,6.45
2017-12-31T18:21:34.912Z,3.65
2017-12-31T18:24:01.032Z,6.50
2017-12-31T18:26:27.165Z,6.20
2017-12-31T18:28:53.347Z,5.15
2017-12-31T18:31:25.828Z,7.00
2017-12-31T18:33:52.132Z,8.27
2017-12-31T18:36:18.247Z,4.55
2017-12-31T18:38:44.336Z,5.07
2017-12-31T18:41:11.032Z,22.70
2017-12-31T18:43:37.912Z,9.07
2017-12-31T18:46:04.029Z,4.80
2017-12-31T18:48:30.129Z,4.68
2017-12-31T18:51:00.136Z,5.55
2017-12-31T18:53:26.255Z,5.15
2017-12-31T18:55:52.410Z,4.20
2017-12-31T18:58:18.479Z,6.22
2017-12-31T19:00:44.556Z,4.35
2017-12-31T19:03:11.076Z,4.03
2017-12-31T19:05:37.188Z,3.90
2017-12-31T19:08:03.285Z,4.30
2017-12-31T19:10:32.562Z,3.65
2017-12-31T19:12:59.424Z,8.65
2017-12-31T19:15:25.492Z,3.60
2017-12-31T19:17:51.837Z,4.37
2017-12-31T19:20:18.786Z,3.80
2017-12-31T19:22:45.609Z,3.20
2017-12-31T19:25:11.860Z,3.30
2017-12-31T19:27:38.008Z,3.35
2017-12-31T19:30:05.440Z,2.90
2017-12-31T19:32:32.259Z,3.53
2017-12-31T19:34:58.439Z,2.95
2017-12-31T19:37:24.544Z,3.65
2017-12-31T19:39:51.594Z,3.85
2017-12-31T19:42:18.503Z,3.15
2017-12-31T19:44:44.603Z,2.60
2017-12-31T19:47:10.711Z,2.20
2017-12-31T19:49:41.104Z,2.47
2017-12-31T19:52:07.673Z,2.50
2017-12-31T19:54:33.854Z,2.90
2017-12-31T19:57:00.148Z,3.20
2017-12-31T19:59:26.297Z,2.60
2017-12-31T20:01:53.139Z,2.17
2017-12-31T20:04:19.239Z,2.25
2017-12-31T20:06:52.232Z,2.80
2017-12-31T20:09:18.327Z,2.58
2017-12-31T20:11:45.811Z,11.02
2017-12-31T20:14:11.996Z,8.02
2017-12-31T20:16:38.143Z,1.95
2017-12-31T20:19:06.233Z,4.72
2017-12-31T20:21:32.388Z,1.95
2017-12-31T20:24:05.222Z,2.70
2017-12-31T20:26:32.067Z,2.05
2017-12-31T20:28:58.395Z,2.70
2017-12-31T20:31:24.689Z,1.20
2017-12-31T20:33:50.811Z,1.80
2017-12-31T20:36:17.655Z,1.60
2017-12-31T20:38:43.747Z,1.85
2017-12-31T20:41:13.807Z,1.50
2017-12-31T20:43:39.924Z,2.55
2017-12-31T20:46:06.040Z,1.85
2017-12-31T20:48:32.149Z,1.50
2017-12-31T20:50:58.261Z,1.77
2017-12-31T20:53:24.375Z,1.70
2017-12-31T20:55:50.506Z,1.23
2017-12-31T20:58:16.638Z,1.55
2017-12-31T21:00:44.512Z,1.33
2017-12-31T21:03:11.338Z,1.25
2017-12-31T21:05:37.507Z,1.23
2017-12-31T21:08:03.831Z,0.80
2017-12-31T21:10:29.971Z,1.30
2017-12-31T21:12:56.080Z,2.58
2017-12-31T21:15:22.483Z,1.40
2017-12-31T21:17:48.607Z,1.73
2017-12-31T21:20:18.788Z,1.90
2017-12-31T21:22:46.172Z,1.70
2017-12-31T21:25:12.513Z,1.60
2017-12-31T21:27:39.376Z,2.00
2017-12-31T21:30:05.656Z,1.33
2017-12-31T21:32:32.514Z,1.70
2017-12-31T21:34:58.670Z,1.70
2017-12-31T21:37:28.268Z,2.10
2017-12-31T21:39:54.339Z,2.10
2017-12-31T21:42:27.423Z,2.17
2017-12-31T21:44:54.820Z,1.80
2017-12-31T21:47:21.000Z,1.60
2017-12-31T21:49:47.073Z,1.90
2017-12-31T21:52:15.631Z,1.65
2017-12-31T21:54:41.699Z,1.70
2017-12-31T21:57:07.768Z,1.85
2017-12-31T21:59:33.840Z,1.87
2017-12-31T22:02:01.245Z,2.50
2017-12-31T22:04:28.072Z,2.72
2017-12-31T22:06:54.337Z,1.80
2017-12-31T22:09:24.233Z,2.97
2017-12-31T22:11:50.296Z,3.50
2017-12-31T22:14:18.305Z,3.85
2017-12-31T22:16:44.368Z,2.65
2017-12-31T22:19:10.439Z,1.90
2017-12-31T22:21:36.811Z,1.92
2017-12-31T22:24:02.907Z,1.75
2017-12-31T22:26:29.017Z,1.70
2017-12-31T22:28:58.897Z,1.70
2017-12-31T22:31:25.042Z,2.45
2017-12-31T22:33:51.159Z,2.75
2017-12-31T22:36:18.004Z,3.00
2017-12-31T22:38:44.301Z,2.65
2017-12-31T22:41:10.548Z,2.97
2017-12-31T22:43:36.767Z,2.30
2017-12-31T22:46:04.248Z,2.60
2017-12-31T22:48:30.380Z,2.28
2017-12-31T22:50:59.584Z,2.72
2017-12-31T22:53:25.931Z,2.12
2017-12-31T22:55:52.041Z,3.62
2017-12-31T22:58:18.166Z,4.97
2017-12-31T23:00:44.304Z,4.87
2017-12-31T23:03:10.419Z,39.42
2017-12-31T23:05:36.564Z,51.85
2017-12-31T23:08:02.684Z,58.10
2017-12-31T23:13:00.051Z,152.93
2017-12-31T23:15:26.721Z,157.07
2017-12-31T23:17:52.853Z,92.00
2017-12-31T23:20:20.294Z,111.72
2017-12-31T23:22:46.428Z,123.62
2017-12-31T23:25:13.280Z,63.80
2017-12-31T23:27:40.295Z,51.05
2017-12-31T23:30:10.678Z,55.33
2017-12-31T23:32:38.399Z,49.58
2017-12-31T23:35:04.530Z,68.43
2017-12-31T23:37:32.221Z,54.70
2017-12-31T23:39:59.032Z,48.50
2017-12-31T23:42:25.095Z,40.47
2017-12-31T23:44:51.183Z,25.70
2017-12-31T23:47:19.083Z,21.98
2017-12-31T23:49:45.189Z,25.50
2017-12-31T23:52:12.048Z,23.00
2017-12-31T23:54:38.856Z,20.92
2017-12-31T23:57:05.391Z,21.85
2017-12-31T23:59:31.511Z,19.92
